Flight Track Log - Related Links

Times and Time Zones

All times are in EDT time to prevent confusion due to time zone crossing. See the SWA655 flight status page for this flight to view local times or setup timezone preferences in your user account.

Time Position Orientation Groundspeed Altitude Reporting Facility
EDT Latitude Longitude Course Direction KTS MPH feet Rate Location/Type
Thu 02:38:03 PM 33.6500 -117.8833 203° Southwest 144 166 1,300  Level Southern California TRACON
Thu 02:39:03 PM 33.6167 -117.9000 203° Southwest 166 191 2,600 1,615 Climbing Southern California TRACON
Thu 02:40:13 PM 33.5636 -117.9131 192° South 182 209 4,800 1,985 Climbing Los Angeles Center
Thu 02:41:16 PM 33.5067 -117.9594 214° Southwest 236 272 7,000 1,344 Climbing Los Angeles Center
Thu 02:42:18 PM 33.4256 -118.0214 213° Southwest 273 314 7,600 2,177 Climbing Los Angeles Center
Thu 02:43:20 PM 33.3575 -118.0772 214° Southwest 291 335 11,500 3,629 Climbing Los Angeles Center
Thu 02:44:22 PM 33.3414 -118.1761 259° West 314 361 15,100 2,516 Climbing Los Angeles Center
Thu 02:45:24 PM 33.3564 -118.2858 279° West 330 380 16,700 2,032 Climbing Los Angeles Center
Thu 02:46:26 PM 33.3944 -118.3997 292° West 386 444 19,300 2,710 Climbing Los Angeles Center
Thu 02:47:28 PM 33.5006 -118.4225 350° North 398 458 22,300 2,758 Climbing Los Angeles Center
Thu 02:48:30 PM 33.6150 -118.4258 359° North 408 470 25,000 2,613 Climbing Los Angeles Center
Thu 02:49:32 PM 33.7492 -118.4289 359° North 424 488 27,700 2,323 Climbing Los Angeles Center
Thu 02:50:34 PM 33.8631 -118.4319 359° North 436 502 29,800 2,064 Climbing Los Angeles Center
Thu 02:51:37 PM 34.0069 -118.4686 348° North 445 512 32,000 2,208 Climbing Los Angeles Center
Thu 02:52:39 PM 34.1214 -118.5256 338° Northwest 445 512 34,400 2,032 Climbing Los Angeles Center
Thu 02:53:41 PM 34.2325 -118.5797 338° Northwest 436 502 36,200 1,645 Climbing Los Angeles Center
Thu 02:54:43 PM 34.3442 -118.6347 338° Northwest 433 498 37,800 1,500 Climbing Los Angeles Center
Thu 02:55:45 PM 34.4556 -118.6894 338° Northwest 434 499 39,300 1,065 Climbing Los Angeles Center
Thu 02:56:47 PM 34.5875 -118.7550 338° Northwest 428 493 40,000 339 Climbing Los Angeles Center
Thu 02:57:49 PM 34.6964 -118.8103 337° Northwest 426 490 40,000  Level Los Angeles Center
Thu 02:58:51 PM 34.8056 -118.8681 337° Northwest 429 494 40,000  Level Los Angeles Center
Thu 02:59:54 PM 34.9050 -118.9606 323° Northwest 419 482 40,000  Level Los Angeles Center
Thu 03:00:56 PM 34.9956 -119.0494 321° Northwest 418 481 40,000  Level Los Angeles Center
Thu 03:01:58 PM 35.0881 -119.1378 322° Northwest 423 487 40,000  Level Los Angeles Center
Thu 03:03:00 PM 35.1789 -119.2264 321° Northwest 421 484 40,000  Level Los Angeles Center
Thu 03:04:02 PM 35.2689 -119.3161 321° Northwest 418 481 40,000  Level Los Angeles Center
Thu 03:05:04 PM 35.3778 -119.4228 321° Northwest 420 483 40,000  Level Los Angeles Center
Thu 03:05:23 PM 35.3933 -119.4383 321° Northwest 419 482 40,000  Level Oakland Center
Thu 03:06:25 PM 35.4833 -119.5283 321° Northwest 421 484 40,000  Level Oakland Center
Thu 03:07:26 PM 35.5914 -119.6356 321° Northwest 419 482 40,000  Level Oakland Center
Thu 03:08:28 PM 35.6819 -119.7250 321° Northwest 420 483 40,000  Level Oakland Center
Thu 03:09:29 PM 35.7722 -119.8169 320° Northwest 423 487 40,000  Level Oakland Center
Thu 03:10:31 PM 35.8622 -119.9061 321° Northwest 421 484 40,000  Level Oakland Center
Thu 03:11:32 PM 35.9519 -119.9994 320° Northwest 424 488 40,000  Level Oakland Center
Thu 03:12:34 PM 36.0417 -120.0872 322° Northwest 417 480 40,000  Level Oakland Center
Thu 03:13:35 PM 36.1306 -120.1772 321° Northwest 417 480 40,000  Level Oakland Center
Thu 03:14:37 PM 36.2375 -120.2864 321° Northwest 417 480 40,000 -683 Level Oakland Center
Thu 03:15:38 PM 36.3253 -120.3778 320° Northwest 414 476 38,600 -1,951 Descending Oakland Center
Thu 03:16:40 PM 36.4128 -120.4672 321° Northwest 410 472 36,000 -2,878 Descending Oakland Center
Thu 03:17:41 PM 36.5022 -120.5564 321° Northwest 413 475 32,700 -2,927 Descending Oakland Center
Thu 03:18:43 PM 36.5917 -120.6517 319° Northwest 422 486 30,000 -2,488 Descending Oakland Center
Thu 03:19:44 PM 36.6786 -120.7428 320° Northwest 410 472 27,600 -2,311 Descending Oakland Center
Thu 03:20:45 PM 36.7614 -120.8322 319° Northwest 397 457 25,300 -2,293 Descending Oakland Center
Thu 03:21:47 PM 36.8419 -120.9200 319° Northwest 377 434 22,900 -2,195 Descending Oakland Center
Thu 03:22:48 PM 36.9169 -121.0086 317° Northwest 370 426 20,800 -2,293 Descending Oakland Center
Thu 03:23:50 PM 37.0047 -121.1086 318° Northwest 356 410 18,200 -2,195 Descending Oakland Center
Thu 03:24:51 PM 37.0750 -121.1894 317° Northwest 351 404 16,300 -2,098 Descending Oakland Center
Thu 03:25:53 PM 37.1489 -121.2744 317° Northwest 351 404 13,900 -2,195 Descending Oakland Center
Thu 03:26:54 PM 37.2192 -121.3561 317° Northwest 346 398 11,800 -1,854 Descending Oakland Center
Thu 03:27:56 PM 37.2878 -121.4367 317° Northwest 337 388 10,100 -1,171 Descending Oakland Center
Thu 03:28:57 PM 37.3483 -121.5072 317° Northwest 297 342 9,400 -808 Descending Oakland Center
Thu 03:29:40 PM 37.4000 -121.5667 318° Northwest 289 333 8,700 -1,049 Descending Northern Cal TRACON
Thu 03:30:40 PM 37.4500 -121.6333 313° West 283 326 7,600 -1,050 Descending Northern Cal TRACON
Thu 03:31:40 PM 37.5000 -121.7167 307° West 277 319 6,600 -1,000 Descending Northern Cal TRACON
Thu 03:32:40 PM 37.5167 -121.8000 284° West 269 310 5,600 -905 Descending Northern Cal TRACON
Thu 03:33:46 PM 37.5500 -121.9000 293° West 267 307 4,700 -1,000 Descending Northern Cal TRACON
Thu 03:34:40 PM 37.5667 -121.9667 288° West 263 303 3,600 -842 Descending Northern Cal TRACON
Thu 03:35:40 PM 37.6000 -122.0500 297° West 230 265 3,100 -730 Descending Northern Cal TRACON
Thu 03:36:35 PM 37.6333 -122.1000 310° West 219 252 2,200 -944 Descending Northern Cal TRACON
Thu 03:37:09 PM 37.6439 -122.1300 294° West 223 257 1,700 -884 Descending Oakland Center
Thu 03:38:10 PM 37.6742 -122.1744 311° West 189 217 800 12,829 Descending Oakland Center
Thu 03:39:12 PM 37.7042 -122.2186 311° West 153 176 28,000 26,323 Climbing Oakland Center
Thu 03:41:00 PM 37.7167 -122.2167 270° West  Level FlightAware Approximate
Thu 03:48:00 PM 37.7213 -122.2207 270° West  Level Estimated

Login

Don't have an account? Register now (free) for customized features, flight alerts, and more!